Aviation Digital Data Service (ADDS)

Output produced by METARs form (1045 UTC 17 June 2019)
found at http://www.aviationweather.gov/metar/data/
 
METAR text: LTAI 171020Z 18009KT 140V210 9999 FEW020TCU 29/19 Q1008 NOSIG RMK RWY18C 17008KT 140V200 RWY36R 18009KT RWY18L 18008KT 150V220
Conditions at: LTAI (ANTALYA (CIV/MIL, TR) observed 1020 UTC 17 June 2019
Temperature: 29.0°C (84°F)
Dewpoint: 19.0°C (66°F) [RH = 55%]
Pressure (altimeter): 29.76 inches Hg (1008.0 mb)
Winds: from the S (180 degrees) at 10 MPH (9 knots; 4.6 m/s)
Visibility: 6 or more miles (10+ km)
Ceiling: at least 12,000 feet AGL
Clouds: few clouds at 2000 feet AGL
Weather: no significant weather observed at this time

METAR text: LTAI 170950Z 19009KT 160V230 9999 FEW020TCU 28/18 Q1008 NOSIG RMK RWY18C 18009KT 130V220 RWY36R 16008KT RWY18L 20009KT
Conditions at: LTAI (ANTALYA (CIV/MIL, TR) observed 0950 UTC 17 June 2019
Temperature: 28.0°C (82°F)
Dewpoint: 18.0°C (64°F) [RH = 55%]
Pressure (altimeter): 29.76 inches Hg (1008.0 mb)
Winds: from the S (190 degrees) at 10 MPH (9 knots; 4.6 m/s)
Visibility: 6 or more miles (10+ km)
Ceiling: at least 12,000 feet AGL
Clouds: few clouds at 2000 feet AGL
Weather: no significant weather observed at this time

METAR text: LTAI 170920Z 20011KT 9999 FEW030 27/18 Q1008 NOSIG RMK RWY18C 17010KT 140V200 RWY36R 20010KT 160V230 RWY18L 19009KT 150V210
Conditions at: LTAI (ANTALYA (CIV/MIL, TR) observed 0920 UTC 17 June 2019
Temperature: 27.0°C (81°F)
Dewpoint: 18.0°C (64°F) [RH = 58%]
Pressure (altimeter): 29.76 inches Hg (1008.0 mb)
Winds: from the SSW (200 degrees) at 13 MPH (11 knots; 5.7 m/s)
Visibility: 6 or more miles (10+ km)
Ceiling: at least 12,000 feet AGL
Clouds: few clouds at 3000 feet AGL
Weather: no significant weather observed at this time

METAR text: LTAI 170850Z 18008KT 130V210 9999 FEW030 28/18 Q1009 NOSIG RMK RWY18C 18008KT 150V230 RWY36R 16007KT 130V190 RWY18L 16007KT 100V210
Conditions at: LTAI (ANTALYA (CIV/MIL, TR) observed 0850 UTC 17 June 2019
Temperature: 28.0°C (82°F)
Dewpoint: 18.0°C (64°F) [RH = 55%]
Pressure (altimeter): 29.79 inches Hg (1009.0 mb)
Winds: from the S (180 degrees) at 9 MPH (8 knots; 4.1 m/s)
Visibility: 6 or more miles (10+ km)
Ceiling: at least 12,000 feet AGL
Clouds: few clouds at 3000 feet AGL
Weather: no significant weather observed at this time

METAR text: LTAI 170820Z 18007KT 140V210 9999 FEW030 28/17 Q1008 NOSIG RMK RWY18C 14006KT 090V200 RWY36R 14006KT 100V180 RWY18L 16006KT 110V210
Conditions at: LTAI (ANTALYA (CIV/MIL, TR) observed 0820 UTC 17 June 2019
Temperature: 28.0°C (82°F)
Dewpoint: 17.0°C (63°F) [RH = 51%]
Pressure (altimeter): 29.76 inches Hg (1008.0 mb)
Winds: from the S (180 degrees) at 8 MPH (7 knots; 3.6 m/s)
Visibility: 6 or more miles (10+ km)
Ceiling: at least 12,000 feet AGL
Clouds: few clouds at 3000 feet AGL
Weather: no significant weather observed at this time

METAR text: LTAI 170750Z 16007KT 110V200 9999 FEW030 28/18 Q1008 NOSIG RMK RWY18C 15006KT 110V210 RWY36R 14007KT 100V170 RWY18L 15006KT 110V210
Conditions at: LTAI (ANTALYA (CIV/MIL, TR) observed 0750 UTC 17 June 2019
Temperature: 28.0°C (82°F)
Dewpoint: 18.0°C (64°F) [RH = 55%]
Pressure (altimeter): 29.76 inches Hg (1008.0 mb)
Winds: from the SSE (160 degrees) at 8 MPH (7 knots; 3.6 m/s)
Visibility: 6 or more miles (10+ km)
Ceiling: at least 12,000 feet AGL
Clouds: few clouds at 3000 feet AGL
Weather: no significant weather observed at this time

METAR text: LTAI 170720Z 16006KT 100V200 9999 FEW030 27/18 Q1008 NOSIG RMK RWY18C 15007KT 120V180 RWY36R 13006KT 100V160 RWY18L 14006KT 110V190
Conditions at: LTAI (ANTALYA (CIV/MIL, TR) observed 0720 UTC 17 June 2019
Temperature: 27.0°C (81°F)
Dewpoint: 18.0°C (64°F) [RH = 58%]
Pressure (altimeter): 29.76 inches Hg (1008.0 mb)
Winds: from the SSE (160 degrees) at 7 MPH (6 knots; 3.1 m/s)
Visibility: 6 or more miles (10+ km)
Ceiling: at least 12,000 feet AGL
Clouds: few clouds at 3000 feet AGL
Weather: no significant weather observed at this time

METAR text: LTAI 170650Z 17008KT 140V200 9999 FEW030 27/18 Q1008 NOSIG RMK RWY18C VRB03KT RWY36R 15008KT 120V180 RWY18L VRB03KT
Conditions at: LTAI (ANTALYA (CIV/MIL, TR) observed 0650 UTC 17 June 2019
Temperature: 27.0°C (81°F)
Dewpoint: 18.0°C (64°F) [RH = 58%]
Pressure (altimeter): 29.76 inches Hg (1008.0 mb)
Winds: from the S (170 degrees) at 9 MPH (8 knots; 4.1 m/s)
Visibility: 6 or more miles (10+ km)
Ceiling: at least 12,000 feet AGL
Clouds: few clouds at 3000 feet AGL
Weather: no significant weather observed at this time

METAR text: LTAI 170620Z 04004KT 330V140 CAVOK 27/15 Q1008 NOSIG RMK RWY18C 07005KT 010V110 RWY36R VRB03KT RWY18L VRB03KT
Conditions at: LTAI (ANTALYA (CIV/MIL, TR) observed 0620 UTC 17 June 2019
Temperature: 27.0°C (81°F)
Dewpoint: 15.0°C (59°F) [RH = 48%]
Pressure (altimeter): 29.76 inches Hg (1008.0 mb)
Winds: from the NE (40 degrees) at 5 MPH (4 knots; 2.1 m/s)
Visibility: 6 or more miles (10+ km)
Ceiling: ceiling and visibility are OK
Clouds: unknown
Weather: no significant weather observed at this time

METAR text: LTAI 170550Z 06005KT 020V110 CAVOK 27/15 Q1008 NOSIG RMK RWY18C 07005KT 030V120 RWY36R 02004KT 330V110 RWY18L 03005KT 330V070
Conditions at: LTAI (ANTALYA (CIV/MIL, TR) observed 0550 UTC 17 June 2019
Temperature: 27.0°C (81°F)
Dewpoint: 15.0°C (59°F) [RH = 48%]
Pressure (altimeter): 29.76 inches Hg (1008.0 mb)
Winds: from the ENE (60 degrees) at 6 MPH (5 knots; 2.6 m/s)
Visibility: 6 or more miles (10+ km)
Ceiling: ceiling and visibility are OK
Clouds: unknown
Weather: no significant weather observed at this time

METAR text: LTAI 170520Z 05005KT 010V090 CAVOK 26/15 Q1008 NOSIG RMK RWY18C 03005KT 340V080 RWY36R 03006KT 340V070 RWY18L 05006KT 360V090
Conditions at: LTAI (ANTALYA (CIV/MIL, TR) observed 0520 UTC 17 June 2019
Temperature: 26.0°C (79°F)
Dewpoint: 15.0°C (59°F) [RH = 51%]
Pressure (altimeter): 29.76 inches Hg (1008.0 mb)
Winds: from the NE (50 degrees) at 6 MPH (5 knots; 2.6 m/s)
Visibility: 6 or more miles (10+ km)
Ceiling: ceiling and visibility are OK
Clouds: unknown
Weather: no significant weather observed at this time

METAR text: LTAI 170450Z 01007KT CAVOK 25/15 Q1007 NOSIG RMK RWY18C 36006KT 340V040 RWY36R 02005KT RWY18L 04005KT 010V070
Conditions at: LTAI (ANTALYA (CIV/MIL, TR) observed 0450 UTC 17 June 2019
Temperature: 25.0°C (77°F)
Dewpoint: 15.0°C (59°F) [RH = 54%]
Pressure (altimeter): 29.73 inches Hg (1007.0 mb)
Winds: from the N (10 degrees) at 8 MPH (7 knots; 3.6 m/s)
Visibility: 6 or more miles (10+ km)
Ceiling: ceiling and visibility are OK
Clouds: unknown
Weather: no significant weather observed at this time

METAR text: LTAI 170420Z 36006KT CAVOK 24/15 Q1007 NOSIG RMK RWY18C 35005KT RWY36R 01005KT RWY18L 01005KT 340V040
Conditions at: LTAI (ANTALYA (CIV/MIL, TR) observed 0420 UTC 17 June 2019
Temperature: 24.0°C (75°F)
Dewpoint: 15.0°C (59°F) [RH = 57%]
Pressure (altimeter): 29.73 inches Hg (1007.0 mb)
Winds: from the N (360 degrees) at 7 MPH (6 knots; 3.1 m/s)
Visibility: 6 or more miles (10+ km)
Ceiling: ceiling and visibility are OK
Clouds: unknown
Weather: no significant weather observed at this time

METAR text: LTAI 170350Z 36005KT CAVOK 23/15 Q1007 NOSIG RMK RWY18C 36005KT RWY36R 35007KT RWY18L 36004KT
Conditions at: LTAI (ANTALYA (CIV/MIL, TR) observed 0350 UTC 17 June 2019
Temperature: 23.0°C (73°F)
Dewpoint: 15.0°C (59°F) [RH = 61%]
Pressure (altimeter): 29.73 inches Hg (1007.0 mb)
Winds: from the N (360 degrees) at 6 MPH (5 knots; 2.6 m/s)
Visibility: 6 or more miles (10+ km)
Ceiling: ceiling and visibility are OK
Clouds: unknown
Weather: no significant weather observed at this time

METAR text: LTAI 170320Z 36006KT CAVOK 22/14 Q1007 NOSIG RMK RWY18C 34004KT RWY36R 36005KT RWY18L 35004KT
Conditions at: LTAI (ANTALYA (CIV/MIL, TR) observed 0320 UTC 17 June 2019
Temperature: 22.0°C (72°F)
Dewpoint: 14.0°C (57°F) [RH = 60%]
Pressure (altimeter): 29.73 inches Hg (1007.0 mb)
Winds: from the N (360 degrees) at 7 MPH (6 knots; 3.1 m/s)
Visibility: 6 or more miles (10+ km)
Ceiling: ceiling and visibility are OK
Clouds: unknown
Weather: no significant weather observed at this time

METAR text: LTAI 170250Z 36004KT CAVOK 21/14 Q1007 NOSIG RMK RWY18C 33003KT RWY36R 01003KT RWY18L 03002KT
Conditions at: LTAI (ANTALYA (CIV/MIL, TR) observed 0250 UTC 17 June 2019
Temperature: 21.0°C (70°F)
Dewpoint: 14.0°C (57°F) [RH = 64%]
Pressure (altimeter): 29.73 inches Hg (1007.0 mb)
Winds: from the N (360 degrees) at 5 MPH (4 knots; 2.1 m/s)
Visibility: 6 or more miles (10+ km)
Ceiling: ceiling and visibility are OK
Clouds: unknown
Weather: no significant weather observed at this time

METAR text: LTAI 170220Z 36004KT CAVOK 21/14 Q1007 NOSIG RMK RWY18C 35004KT RWY36R 35004KT RWY18L VRB02KT
Conditions at: LTAI (ANTALYA (CIV/MIL, TR) observed 0220 UTC 17 June 2019
Temperature: 21.0°C (70°F)
Dewpoint: 14.0°C (57°F) [RH = 64%]
Pressure (altimeter): 29.73 inches Hg (1007.0 mb)
Winds: from the N (360 degrees) at 5 MPH (4 knots; 2.1 m/s)
Visibility: 6 or more miles (10+ km)
Ceiling: ceiling and visibility are OK
Clouds: unknown
Weather: no significant weather observed at this time

METAR text: LTAI 170150Z 34004KT CAVOK 21/14 Q1006 NOSIG RMK RWY18C 34005KT RWY36R 36004KT RWY18L 36002KT
Conditions at: LTAI (ANTALYA (CIV/MIL, TR) observed 0150 UTC 17 June 2019
Temperature: 21.0°C (70°F)
Dewpoint: 14.0°C (57°F) [RH = 64%]
Pressure (altimeter): 29.70 inches Hg (1006.0 mb)
Winds: from the NNW (340 degrees) at 5 MPH (4 knots; 2.1 m/s)
Visibility: 6 or more miles (10+ km)
Ceiling: ceiling and visibility are OK
Clouds: unknown
Weather: no significant weather observed at this time

METAR text: LTAI 170120Z 35005KT CAVOK 21/14 Q1006 NOSIG RMK RWY18C 34003KT RWY36R 34006KT RWY18L 01003KT
Conditions at: LTAI (ANTALYA (CIV/MIL, TR) observed 0120 UTC 17 June 2019
Temperature: 21.0°C (70°F)
Dewpoint: 14.0°C (57°F) [RH = 64%]
Pressure (altimeter): 29.70 inches Hg (1006.0 mb)
Winds: from the N (350 degrees) at 6 MPH (5 knots; 2.6 m/s)
Visibility: 6 or more miles (10+ km)
Ceiling: ceiling and visibility are OK
Clouds: unknown
Weather: no significant weather observed at this time

METAR text: LTAI 170050Z 35005KT CAVOK 21/14 Q1006 NOSIG RMK RWY18C 34004KT RWY36R 35006KT RWY18L 35003KT
Conditions at: LTAI (ANTALYA (CIV/MIL, TR) observed 0050 UTC 17 June 2019
Temperature: 21.0°C (70°F)
Dewpoint: 14.0°C (57°F) [RH = 64%]
Pressure (altimeter): 29.70 inches Hg (1006.0 mb)
Winds: from the N (350 degrees) at 6 MPH (5 knots; 2.6 m/s)
Visibility: 6 or more miles (10+ km)
Ceiling: ceiling and visibility are OK
Clouds: unknown
Weather: no significant weather observed at this time

METAR text: LTAI 170020Z 36006KT CAVOK 22/15 Q1007 NOSIG RMK RWY18C 35004KT RWY36R 36005KT RWY18L 01004KT 340V040
Conditions at: LTAI (ANTALYA (CIV/MIL, TR) observed 0020 UTC 17 June 2019
Temperature: 22.0°C (72°F)
Dewpoint: 15.0°C (59°F) [RH = 65%]
Pressure (altimeter): 29.73 inches Hg (1007.0 mb)
Winds: from the N (360 degrees) at 7 MPH (6 knots; 3.1 m/s)
Visibility: 6 or more miles (10+ km)
Ceiling: ceiling and visibility are OK
Clouds: unknown
Weather: no significant weather observed at this time

METAR text: LTAI 162350Z 01003KT CAVOK 22/15 Q1007 NOSIG RMK RWY18C VRB02KT RWY36R 36004KT RWY18L 32003KT
Conditions at: LTAI (ANTALYA (CIV/MIL, TR) observed 2350 UTC 16 June 2019
Temperature: 22.0°C (72°F)
Dewpoint: 15.0°C (59°F) [RH = 65%]
Pressure (altimeter): 29.73 inches Hg (1007.0 mb)
Winds: from the N (10 degrees) at 3 MPH (3 knots; 1.5 m/s)
Visibility: 6 or more miles (10+ km)
Ceiling: ceiling and visibility are OK
Clouds: unknown
Weather: no significant weather observed at this time

METAR text: LTAI 162320Z 05004KT CAVOK 20/15 Q1007 NOSIG RMK RWY18C 00000KT RWY36R 01003KT RWY18L VRB02KT
Conditions at: LTAI (ANTALYA (CIV/MIL, TR) observed 2320 UTC 16 June 2019
Temperature: 20.0°C (68°F)
Dewpoint: 15.0°C (59°F) [RH = 73%]
Pressure (altimeter): 29.73 inches Hg (1007.0 mb)
Winds: from the NE (50 degrees) at 5 MPH (4 knots; 2.1 m/s)
Visibility: 6 or more miles (10+ km)
Ceiling: ceiling and visibility are OK
Clouds: unknown
Weather: no significant weather observed at this time

METAR text: LTAI 162250Z 04002KT CAVOK 21/15 Q1007 NOSIG RMK RWY18C VRB01KT RWY36R VRB02KT RWY18L VRB01KT
Conditions at: LTAI (ANTALYA (CIV/MIL, TR) observed 2250 UTC 16 June 2019
Temperature: 21.0°C (70°F)
Dewpoint: 15.0°C (59°F) [RH = 69%]
Pressure (altimeter): 29.73 inches Hg (1007.0 mb)
Winds: from the NE (40 degrees) at 2 MPH (2 knots; 1.0 m/s)
Visibility: 6 or more miles (10+ km)
Ceiling: ceiling and visibility are OK
Clouds: unknown
Weather: no significant weather observed at this time

METAR text: LTAI 162220Z 32004KT 270V360 CAVOK 22/15 Q1007 NOSIG RMK RWY18C 01004KT RWY36R 01004KT RWY18L 01004KT 340V040
Conditions at: LTAI (ANTALYA (CIV/MIL, TR) observed 2220 UTC 16 June 2019
Temperature: 22.0°C (72°F)
Dewpoint: 15.0°C (59°F) [RH = 65%]
Pressure (altimeter): 29.73 inches Hg (1007.0 mb)
Winds: from the NW (320 degrees) at 5 MPH (4 knots; 2.1 m/s)
Visibility: 6 or more miles (10+ km)
Ceiling: ceiling and visibility are OK
Clouds: unknown
Weather: no significant weather observed at this time

METAR text: LTAI 162150Z 35006KT CAVOK 23/15 Q1007 NOSIG RMK RWY18C 35004KT 310V010 RWY36R 34006KT RWY18L 02004KT
Conditions at: LTAI (ANTALYA (CIV/MIL, TR) observed 2150 UTC 16 June 2019
Temperature: 23.0°C (73°F)
Dewpoint: 15.0°C (59°F) [RH = 61%]
Pressure (altimeter): 29.73 inches Hg (1007.0 mb)
Winds: from the N (350 degrees) at 7 MPH (6 knots; 3.1 m/s)
Visibility: 6 or more miles (10+ km)
Ceiling: ceiling and visibility are OK
Clouds: unknown
Weather: no significant weather observed at this time

METAR text: LTAI 162120Z 36005KT 9999 FEW030 23/15 Q1007 NOSIG RMK RWY18C 35006KT RWY36R 36005KT RWY18L 36004KT
Conditions at: LTAI (ANTALYA (CIV/MIL, TR) observed 2120 UTC 16 June 2019
Temperature: 23.0°C (73°F)
Dewpoint: 15.0°C (59°F) [RH = 61%]
Pressure (altimeter): 29.73 inches Hg (1007.0 mb)
Winds: from the N (360 degrees) at 6 MPH (5 knots; 2.6 m/s)
Visibility: 6 or more miles (10+ km)
Ceiling: at least 12,000 feet AGL
Clouds: few clouds at 3000 feet AGL
Weather: no significant weather observed at this time

METAR text: LTAI 162050Z 33003KT 9999 FEW030 23/15 Q1007 NOSIG RMK RWY18C 35004KT RWY36R 36004KT RWY18L 36004KT 320V020
Conditions at: LTAI (ANTALYA (CIV/MIL, TR) observed 2050 UTC 16 June 2019
Temperature: 23.0°C (73°F)
Dewpoint: 15.0°C (59°F) [RH = 61%]
Pressure (altimeter): 29.73 inches Hg (1007.0 mb)
Winds: from the NNW (330 degrees) at 3 MPH (3 knots; 1.5 m/s)
Visibility: 6 or more miles (10+ km)
Ceiling: at least 12,000 feet AGL
Clouds: few clouds at 3000 feet AGL
Weather: no significant weather observed at this time

METAR text: LTAI 162020Z 35006KT 9999 FEW030 23/15 Q1007 NOSIG RMK RWY18C 34006KT RWY36R 36005KT RWY18L 35004KT
Conditions at: LTAI (ANTALYA (CIV/MIL, TR) observed 2020 UTC 16 June 2019
Temperature: 23.0°C (73°F)
Dewpoint: 15.0°C (59°F) [RH = 61%]
Pressure (altimeter): 29.73 inches Hg (1007.0 mb)
Winds: from the N (350 degrees) at 7 MPH (6 knots; 3.1 m/s)
Visibility: 6 or more miles (10+ km)
Ceiling: at least 12,000 feet AGL
Clouds: few clouds at 3000 feet AGL
Weather: no significant weather observed at this time

METAR text: LTAI 161950Z 35006KT 9999 FEW030 24/15 Q1007 NOSIG RMK RWY18C 35007KT RWY36R 36006KT RWY18L 01006KT
Conditions at: LTAI (ANTALYA (CIV/MIL, TR) observed 1950 UTC 16 June 2019
Temperature: 24.0°C (75°F)
Dewpoint: 15.0°C (59°F) [RH = 57%]
Pressure (altimeter): 29.73 inches Hg (1007.0 mb)
Winds: from the N (350 degrees) at 7 MPH (6 knots; 3.1 m/s)
Visibility: 6 or more miles (10+ km)
Ceiling: at least 12,000 feet AGL
Clouds: few clouds at 3000 feet AGL
Weather: no significant weather observed at this time

METAR text: LTAI 161920Z 33003KT 280V360 9999 FEW030 24/15 Q1007 NOSIG RMK RWY18C 35006KT RWY36R VRB02KT RWY18L 01004KT
Conditions at: LTAI (ANTALYA (CIV/MIL, TR) observed 1920 UTC 16 June 2019
Temperature: 24.0°C (75°F)
Dewpoint: 15.0°C (59°F) [RH = 57%]
Pressure (altimeter): 29.73 inches Hg (1007.0 mb)
Winds: from the NNW (330 degrees) at 3 MPH (3 knots; 1.5 m/s)
Visibility: 6 or more miles (10+ km)
Ceiling: at least 12,000 feet AGL
Clouds: few clouds at 3000 feet AGL
Weather: no significant weather observed at this time

METAR text: LTAI 161850Z 35005KT 9999 SCT030 24/15 Q1007 NOSIG RMK RWY18C 34005KT RWY36R 35006KT RWY18L 33006KT 300V040
Conditions at: LTAI (ANTALYA (CIV/MIL, TR) observed 1850 UTC 16 June 2019
Temperature: 24.0°C (75°F)
Dewpoint: 15.0°C (59°F) [RH = 57%]
Pressure (altimeter): 29.73 inches Hg (1007.0 mb)
Winds: from the N (350 degrees) at 6 MPH (5 knots; 2.6 m/s)
Visibility: 6 or more miles (10+ km)
Ceiling: at least 12,000 feet AGL
Clouds: scattered clouds at 3000 feet AGL
Weather: no significant weather observed at this time

METAR text: LTAI 161820Z 35004KT 310V020 9999 SCT030 25/15 Q1007 NOSIG RMK RWY18C 33005KT RWY36R 35006KT RWY18L 34004KT
Conditions at: LTAI (ANTALYA (CIV/MIL, TR) observed 1820 UTC 16 June 2019
Temperature: 25.0°C (77°F)
Dewpoint: 15.0°C (59°F) [RH = 54%]
Pressure (altimeter): 29.73 inches Hg (1007.0 mb)
Winds: from the N (350 degrees) at 5 MPH (4 knots; 2.1 m/s)
Visibility: 6 or more miles (10+ km)
Ceiling: at least 12,000 feet AGL
Clouds: scattered clouds at 3000 feet AGL
Weather: no significant weather observed at this time

METAR text: LTAI 161750Z 34005KT 300V040 9999 SCT030 25/15 Q1007 NOSIG RMK RWY18C 34005KT RWY36R 36003KT RWY18L 35004KT 320V030
Conditions at: LTAI (ANTALYA (CIV/MIL, TR) observed 1750 UTC 16 June 2019
Temperature: 25.0°C (77°F)
Dewpoint: 15.0°C (59°F) [RH = 54%]
Pressure (altimeter): 29.73 inches Hg (1007.0 mb)
Winds: from the NNW (340 degrees) at 6 MPH (5 knots; 2.6 m/s)
Visibility: 6 or more miles (10+ km)
Ceiling: at least 12,000 feet AGL
Clouds: scattered clouds at 3000 feet AGL
Weather: no significant weather observed at this time

METAR text: LTAI 161720Z 02007KT 9999 FEW020CB SCT030 25/15 Q1007 NOSIG RMK RWY18C 02007KT 340V040 RWY36R 01006KT RWY18L 02006KT 350V050
Conditions at: LTAI (ANTALYA (CIV/MIL, TR) observed 1720 UTC 16 June 2019
Temperature: 25.0°C (77°F)
Dewpoint: 15.0°C (59°F) [RH = 54%]
Pressure (altimeter): 29.73 inches Hg (1007.0 mb)
Winds: from the NNE (20 degrees) at 8 MPH (7 knots; 3.6 m/s)
Visibility: 6 or more miles (10+ km)
Ceiling: at least 12,000 feet AGL
Clouds: few clouds at 2000 feet AGL
scattered clouds at 3000 feet AGL
Weather: no significant weather observed at this time

METAR text: LTAI 161650Z VRB02KT 9999 FEW020CB SCT030 26/20 Q1007 NOSIG RMK RWY18C 36005KT 320V020 RWY36R 31003KT 260V360 RWY18L 36004KT
Conditions at: LTAI (ANTALYA (CIV/MIL, TR) observed 1650 UTC 16 June 2019
Temperature: 26.0°C (79°F)
Dewpoint: 20.0°C (68°F) [RH = 70%]
Pressure (altimeter): 29.73 inches Hg (1007.0 mb)
Winds: variable direction winds at 2 MPH (2 knots; 1.0 m/s)
Visibility: 6 or more miles (10+ km)
Ceiling: at least 12,000 feet AGL
Clouds: few clouds at 2000 feet AGL
scattered clouds at 3000 feet AGL
Weather: no significant weather observed at this time

METAR text: LTAI 161620Z 27004KT 230V310 9999 FEW020CB SCT030 26/20 Q1007 NOSIG RMK RWY18C 23005KT RWY36R VRB05KT RWY18L 25005KT 220V280
Conditions at: LTAI (ANTALYA (CIV/MIL, TR) observed 1620 UTC 16 June 2019
Temperature: 26.0°C (79°F)
Dewpoint: 20.0°C (68°F) [RH = 70%]
Pressure (altimeter): 29.73 inches Hg (1007.0 mb)
Winds: from the W (270 degrees) at 5 MPH (4 knots; 2.1 m/s)
Visibility: 6 or more miles (10+ km)
Ceiling: at least 12,000 feet AGL
Clouds: few clouds at 2000 feet AGL
scattered clouds at 3000 feet AGL
Weather: no significant weather observed at this time

METAR text: LTAI 161550Z 22007KT 9999 FEW020CB SCT030 26/20 Q1007 BECMG 17012KT -TSRA
Conditions at: LTAI (ANTALYA (CIV/MIL, TR) observed 1550 UTC 16 June 2019
Temperature: 26.0°C (79°F)
Dewpoint: 20.0°C (68°F) [RH = 70%]
Pressure (altimeter): 29.73 inches Hg (1007.0 mb)
Winds: from the SW (220 degrees) at 8 MPH (7 knots; 3.6 m/s)
Visibility: 6 or more miles (10+ km)
Ceiling: at least 12,000 feet AGL
Clouds: few clouds at 2000 feet AGL
scattered clouds at 3000 feet AGL
Weather: no significant weather observed at this time

METAR text: LTAI 161520Z 18009KT 9999 FEW020CB 26/19 Q1007 BECMG -TSRA
Conditions at: LTAI (ANTALYA (CIV/MIL, TR) observed 1520 UTC 16 June 2019
Temperature: 26.0°C (79°F)
Dewpoint: 19.0°C (66°F) [RH = 65%]
Pressure (altimeter): 29.73 inches Hg (1007.0 mb)
Winds: from the S (180 degrees) at 10 MPH (9 knots; 4.6 m/s)
Visibility: 6 or more miles (10+ km)
Ceiling: at least 12,000 feet AGL
Clouds: few clouds at 2000 feet AGL
Weather: no significant weather observed at this time

METAR text: LTAI 161450Z 16008KT 120V190 9999 FEW020CB 27/20 Q1007 BECMG TL1500 -TSRA
Conditions at: LTAI (ANTALYA (CIV/MIL, TR) observed 1450 UTC 16 June 2019
Temperature: 27.0°C (81°F)
Dewpoint: 20.0°C (68°F) [RH = 66%]
Pressure (altimeter): 29.73 inches Hg (1007.0 mb)
Winds: from the SSE (160 degrees) at 9 MPH (8 knots; 4.1 m/s)
Visibility: 6 or more miles (10+ km)
Ceiling: at least 12,000 feet AGL
Clouds: few clouds at 2000 feet AGL
Weather: no significant weather observed at this time

METAR text: LTAI 161420Z 13009KT 9999 FEW020CB 28/20 Q1007 BECMG TL1500 -TSRA
Conditions at: LTAI (ANTALYA (CIV/MIL, TR) observed 1420 UTC 16 June 2019
Temperature: 28.0°C (82°F)
Dewpoint: 20.0°C (68°F) [RH = 62%]
Pressure (altimeter): 29.73 inches Hg (1007.0 mb)
Winds: from the SE (130 degrees) at 10 MPH (9 knots; 4.6 m/s)
Visibility: 6 or more miles (10+ km)
Ceiling: at least 12,000 feet AGL
Clouds: few clouds at 2000 feet AGL
Weather: no significant weather observed at this time

METAR text: LTAI 161350Z 14012KT 9999 FEW020CB 28/20 Q1007 BECMG TL1500 -TSRA
Conditions at: LTAI (ANTALYA (CIV/MIL, TR) observed 1350 UTC 16 June 2019
Temperature: 28.0°C (82°F)
Dewpoint: 20.0°C (68°F) [RH = 62%]
Pressure (altimeter): 29.73 inches Hg (1007.0 mb)
Winds: from the SE (140 degrees) at 14 MPH (12 knots; 6.2 m/s)
Visibility: 6 or more miles (10+ km)
Ceiling: at least 12,000 feet AGL
Clouds: few clouds at 2000 feet AGL
Weather: no significant weather observed at this time

METAR text: LTAI 161320Z 15012KT 110V170 9999 FEW020CB 28/20 Q1007 NOSIG RMK RWY18C 13011KT RWY36R 13012KT RWY18L 14011KT
Conditions at: LTAI (ANTALYA (CIV/MIL, TR) observed 1320 UTC 16 June 2019
Temperature: 28.0°C (82°F)
Dewpoint: 20.0°C (68°F) [RH = 62%]
Pressure (altimeter): 29.73 inches Hg (1007.0 mb)
Winds: from the SSE (150 degrees) at 14 MPH (12 knots; 6.2 m/s)
Visibility: 6 or more miles (10+ km)
Ceiling: at least 12,000 feet AGL
Clouds: few clouds at 2000 feet AGL
Weather: no significant weather observed at this time

METAR text: LTAI 161250Z 16010KT 120V180 9999 FEW020CB 29/19 Q1007 NOSIG RMK RWY18C 15011KT RWY36R 14012KT RWY18L 15010KT 110V180
Conditions at: LTAI (ANTALYA (CIV/MIL, TR) observed 1250 UTC 16 June 2019
Temperature: 29.0°C (84°F)
Dewpoint: 19.0°C (66°F) [RH = 55%]
Pressure (altimeter): 29.73 inches Hg (1007.0 mb)
Winds: from the SSE (160 degrees) at 12 MPH (10 knots; 5.1 m/s)
Visibility: 6 or more miles (10+ km)
Ceiling: at least 12,000 feet AGL
Clouds: few clouds at 2000 feet AGL
Weather: no significant weather observed at this time

METAR text: LTAI 161220Z 17010KT 130V200 9999 FEW020CB 28/19 Q1006 NOSIG RMK RWY18C 17010KT 140V200 RWY36R 16010KT 140V200 RWY18L 16009KT
Conditions at: LTAI (ANTALYA (CIV/MIL, TR) observed 1220 UTC 16 June 2019
Temperature: 28.0°C (82°F)
Dewpoint: 19.0°C (66°F) [RH = 58%]
Pressure (altimeter): 29.70 inches Hg (1006.0 mb)
Winds: from the S (170 degrees) at 12 MPH (10 knots; 5.1 m/s)
Visibility: 6 or more miles (10+ km)
Ceiling: at least 12,000 feet AGL
Clouds: few clouds at 2000 feet AGL
Weather: no significant weather observed at this time

METAR text: LTAI 161150Z 18009KT 150V210 9999 FEW020CB 29/20 Q1006 NOSIG RMK RWY18C 18008KT 140V220 RWY36R 17008KT 140V200 RWY18L 16007KT 130V190
Conditions at: LTAI (ANTALYA (CIV/MIL, TR) observed 1150 UTC 16 June 2019
Temperature: 29.0°C (84°F)
Dewpoint: 20.0°C (68°F) [RH = 58%]
Pressure (altimeter): 29.70 inches Hg (1006.0 mb)
Winds: from the S (180 degrees) at 10 MPH (9 knots; 4.6 m/s)
Visibility: 6 or more miles (10+ km)
Ceiling: at least 12,000 feet AGL
Clouds: few clouds at 2000 feet AGL
Weather: no significant weather observed at this time

METAR text: LTAI 161120Z 18009KT 150V220 9999 FEW020CB 29/18 Q1007 NOSIG RMK RWY18C 17008KT 130V210 RWY36R 18009KT 150V220 RWY18L 18008KT 160V220
Conditions at: LTAI (ANTALYA (CIV/MIL, TR) observed 1120 UTC 16 June 2019
Temperature: 29.0°C (84°F)
Dewpoint: 18.0°C (64°F) [RH = 52%]
Pressure (altimeter): 29.73 inches Hg (1007.0 mb)
Winds: from the S (180 degrees) at 10 MPH (9 knots; 4.6 m/s)
Visibility: 6 or more miles (10+ km)
Ceiling: at least 12,000 feet AGL
Clouds: few clouds at 2000 feet AGL
Weather: no significant weather observed at this time

METAR text: LTAI 161050Z 19007KT 140V240 9999 FEW020CB 29/17 Q1007 NOSIG RMK RWY18C 17007KT 140V200 RWY36R 19008KT 150V230 RWY18L 18008KT 150V210
Conditions at: LTAI (ANTALYA (CIV/MIL, TR) observed 1050 UTC 16 June 2019
Temperature: 29.0°C (84°F)
Dewpoint: 17.0°C (63°F) [RH = 48%]
Pressure (altimeter): 29.73 inches Hg (1007.0 mb)
Winds: from the S (190 degrees) at 8 MPH (7 knots; 3.6 m/s)
Visibility: 6 or more miles (10+ km)
Ceiling: at least 12,000 feet AGL
Clouds: few clouds at 2000 feet AGL
Weather: no significant weather observed at this time

METAR text: LTAI 161020Z 20010KT 9999 FEW030CB 28/19 Q1007 NOSIG RMK RWY18C 17009KT 140V200 RWY36R 19009KT 150V230 RWY18L 19008KT 140V230
Conditions at: LTAI (ANTALYA (CIV/MIL, TR) observed 1020 UTC 16 June 2019
Temperature: 28.0°C (82°F)
Dewpoint: 19.0°C (66°F) [RH = 58%]
Pressure (altimeter): 29.73 inches Hg (1007.0 mb)
Winds: from the SSW (200 degrees) at 12 MPH (10 knots; 5.1 m/s)
Visibility: 6 or more miles (10+ km)
Ceiling: at least 12,000 feet AGL
Clouds: few clouds at 3000 feet AGL
Weather: no significant weather observed at this time

METAR text: LTAI 160950Z 19008KT 140V230 9999 FEW020CB 28/18 Q1007 NOSIG RMK RWY18C 18009KT 140V200 RWY36R 18008KT 140V210 RWY18L 16008KT 120V190
Conditions at: LTAI (ANTALYA (CIV/MIL, TR) observed 0950 UTC 16 June 2019
Temperature: 28.0°C (82°F)
Dewpoint: 18.0°C (64°F) [RH = 55%]
Pressure (altimeter): 29.73 inches Hg (1007.0 mb)
Winds: from the S (190 degrees) at 9 MPH (8 knots; 4.1 m/s)
Visibility: 6 or more miles (10+ km)
Ceiling: at least 12,000 feet AGL
Clouds: few clouds at 2000 feet AGL
Weather: no significant weather observed at this time

METAR text: LTAI 160920Z 19009KT 160V220 9999 FEW020TCU 28/18 Q1008 NOSIG RMK RWY18C 18008KT 150V210 RWY36R 17008KT 140V200 RWY18L 16008KT 130V200
Conditions at: LTAI (ANTALYA (CIV/MIL, TR) observed 0920 UTC 16 June 2019
Temperature: 28.0°C (82°F)
Dewpoint: 18.0°C (64°F) [RH = 55%]
Pressure (altimeter): 29.76 inches Hg (1008.0 mb)
Winds: from the S (190 degrees) at 10 MPH (9 knots; 4.6 m/s)
Visibility: 6 or more miles (10+ km)
Ceiling: at least 12,000 feet AGL
Clouds: few clouds at 2000 feet AGL
Weather: no significant weather observed at this time

METAR text: LTAI 160850Z 19008KT 160V220 9999 FEW020TCU 28/18 Q1008 NOSIG RMK RWY18C 17009KT 130V210 RWY36R 16008KT 130V200 RWY18L 15007KT 120V200
Conditions at: LTAI (ANTALYA (CIV/MIL, TR) observed 0850 UTC 16 June 2019
Temperature: 28.0°C (82°F)
Dewpoint: 18.0°C (64°F) [RH = 55%]
Pressure (altimeter): 29.76 inches Hg (1008.0 mb)
Winds: from the S (190 degrees) at 9 MPH (8 knots; 4.1 m/s)
Visibility: 6 or more miles (10+ km)
Ceiling: at least 12,000 feet AGL
Clouds: few clouds at 2000 feet AGL
Weather: no significant weather observed at this time

METAR text: LTAI 160820Z 17008KT 120V210 9999 FEW020TCU 28/18 Q1008 NOSIG RMK RWY18C 15007KT 090V190 RWY36R 14007KT 080V190 RWY18L 16007KT 110V200
Conditions at: LTAI (ANTALYA (CIV/MIL, TR) observed 0820 UTC 16 June 2019
Temperature: 28.0°C (82°F)
Dewpoint: 18.0°C (64°F) [RH = 55%]
Pressure (altimeter): 29.76 inches Hg (1008.0 mb)
Winds: from the S (170 degrees) at 9 MPH (8 knots; 4.1 m/s)
Visibility: 6 or more miles (10+ km)
Ceiling: at least 12,000 feet AGL
Clouds: few clouds at 2000 feet AGL
Weather: no significant weather observed at this time

METAR text: LTAI 160750Z 16006KT 090V210 9999 FEW030 28/17 Q1008 NOSIG RMK RWY18C 17006KT 130V240 RWY36R 15006KT 100V210 RWY18L 15006KT 120V230
Conditions at: LTAI (ANTALYA (CIV/MIL, TR) observed 0750 UTC 16 June 2019
Temperature: 28.0°C (82°F)
Dewpoint: 17.0°C (63°F) [RH = 51%]
Pressure (altimeter): 29.76 inches Hg (1008.0 mb)
Winds: from the SSE (160 degrees) at 7 MPH (6 knots; 3.1 m/s)
Visibility: 6 or more miles (10+ km)
Ceiling: at least 12,000 feet AGL
Clouds: few clouds at 3000 feet AGL
Weather: no significant weather observed at this time

METAR text: LTAI 160720Z 16008KT 130V190 9999 FEW030 27/17 Q1007 NOSIG RMK RWY18C 14009KT 110V170 RWY36R 17006KT 130V220 RWY18L 17007KT 120V200
Conditions at: LTAI (ANTALYA (CIV/MIL, TR) observed 0720 UTC 16 June 2019
Temperature: 27.0°C (81°F)
Dewpoint: 17.0°C (63°F) [RH = 54%]
Pressure (altimeter): 29.73 inches Hg (1007.0 mb)
Winds: from the SSE (160 degrees) at 9 MPH (8 knots; 4.1 m/s)
Visibility: 6 or more miles (10+ km)
Ceiling: at least 12,000 feet AGL
Clouds: few clouds at 3000 feet AGL
Weather: no significant weather observed at this time

METAR text: LTAI 160650Z 23007KT 200V260 9999 FEW030 28/17 Q1007 NOSIG RMK RWY18C VRB03KT RWY36R 19005KT 140V230 RWY18L VRB02KT
Conditions at: LTAI (ANTALYA (CIV/MIL, TR) observed 0650 UTC 16 June 2019
Temperature: 28.0°C (82°F)
Dewpoint: 17.0°C (63°F) [RH = 51%]
Pressure (altimeter): 29.73 inches Hg (1007.0 mb)
Winds: from the SW (230 degrees) at 8 MPH (7 knots; 3.6 m/s)
Visibility: 6 or more miles (10+ km)
Ceiling: at least 12,000 feet AGL
Clouds: few clouds at 3000 feet AGL
Weather: no significant weather observed at this time

METAR text: LTAI 160620Z 25006KT 210V280 9999 FEW030 28/14 Q1007 NOSIG RMK RWY18C 07004KT 030V140 RWY36R 03004KT 310V100 RWY18L 02004KT 320V120
Conditions at: LTAI (ANTALYA (CIV/MIL, TR) observed 0620 UTC 16 June 2019
Temperature: 28.0°C (82°F)
Dewpoint: 14.0°C (57°F) [RH = 42%]
Pressure (altimeter): 29.73 inches Hg (1007.0 mb)
Winds: from the WSW (250 degrees) at 7 MPH (6 knots; 3.1 m/s)
Visibility: 6 or more miles (10+ km)
Ceiling: at least 12,000 feet AGL
Clouds: few clouds at 3000 feet AGL
Weather: no significant weather observed at this time

METAR text: LTAI 160550Z 29006KT 220V340 CAVOK 27/14 Q1007 NOSIG RMK RWY18C 35005KT RWY36R 31006KT 270V030 RWY18L 33005KT 270V040
Conditions at: LTAI (ANTALYA (CIV/MIL, TR) observed 0550 UTC 16 June 2019
Temperature: 27.0°C (81°F)
Dewpoint: 14.0°C (57°F) [RH = 45%]
Pressure (altimeter): 29.73 inches Hg (1007.0 mb)
Winds: from the WNW (290 degrees) at 7 MPH (6 knots; 3.1 m/s)
Visibility: 6 or more miles (10+ km)
Ceiling: ceiling and visibility are OK
Clouds: unknown
Weather: no significant weather observed at this time

METAR text: LTAI 160520Z VRB06KT CAVOK 27/14 Q1007 NOSIG RMK RWY18C 36004KT 320V030 RWY36R 32006KT 280V010 RWY18L 34005KT 300V010
Conditions at: LTAI (ANTALYA (CIV/MIL, TR) observed 0520 UTC 16 June 2019
Temperature: 27.0°C (81°F)
Dewpoint: 14.0°C (57°F) [RH = 45%]
Pressure (altimeter): 29.73 inches Hg (1007.0 mb)
Winds: variable direction winds at 7 MPH (6 knots; 3.1 m/s)
Visibility: 6 or more miles (10+ km)
Ceiling: ceiling and visibility are OK
Clouds: unknown
Weather: no significant weather observed at this time

METAR text: LTAI 160450Z 32005KT 260V350 CAVOK 25/14 Q1006 NOSIG RMK RWY18C 33008KT RWY36R 32007KT 270V350 RWY18L 33006KT
Conditions at: LTAI (ANTALYA (CIV/MIL, TR) observed 0450 UTC 16 June 2019
Temperature: 25.0°C (77°F)
Dewpoint: 14.0°C (57°F) [RH = 50%]
Pressure (altimeter): 29.70 inches Hg (1006.0 mb)
Winds: from the NW (320 degrees) at 6 MPH (5 knots; 2.6 m/s)
Visibility: 6 or more miles (10+ km)
Ceiling: ceiling and visibility are OK
Clouds: unknown
Weather: no significant weather observed at this time

METAR text: LTAI 160420Z 34006KT CAVOK 24/14 Q1006 NOSIG RMK RWY18C 34005KT RWY36R 33009KT RWY18L 32007KT
Conditions at: LTAI (ANTALYA (CIV/MIL, TR) observed 0420 UTC 16 June 2019
Temperature: 24.0°C (75°F)
Dewpoint: 14.0°C (57°F) [RH = 54%]
Pressure (altimeter): 29.70 inches Hg (1006.0 mb)
Winds: from the NNW (340 degrees) at 7 MPH (6 knots; 3.1 m/s)
Visibility: 6 or more miles (10+ km)
Ceiling: ceiling and visibility are OK
Clouds: unknown
Weather: no significant weather observed at this time

METAR text: LTAI 160350Z 34008KT CAVOK 23/13 Q1006 NOSIG RMK RWY18C 31005KT RWY36R 33008KT RWY18L 31005KT
Conditions at: LTAI (ANTALYA (CIV/MIL, TR) observed 0350 UTC 16 June 2019
Temperature: 23.0°C (73°F)
Dewpoint: 13.0°C (55°F) [RH = 53%]
Pressure (altimeter): 29.70 inches Hg (1006.0 mb)
Winds: from the NNW (340 degrees) at 9 MPH (8 knots; 4.1 m/s)
Visibility: 6 or more miles (10+ km)
Ceiling: ceiling and visibility are OK
Clouds: unknown
Weather: no significant weather observed at this time

METAR text: LTAI 160320Z VRB05KT CAVOK 22/13 Q1006 NOSIG RMK RWY18C 33004KT 290V350 RWY36R 32006KT RWY18L 33003KT 310V010
Conditions at: LTAI (ANTALYA (CIV/MIL, TR) observed 0320 UTC 16 June 2019
Temperature: 22.0°C (72°F)
Dewpoint: 13.0°C (55°F) [RH = 57%]
Pressure (altimeter): 29.70 inches Hg (1006.0 mb)
Winds: variable direction winds at 6 MPH (5 knots; 2.6 m/s)
Visibility: 6 or more miles (10+ km)
Ceiling: ceiling and visibility are OK
Clouds: unknown
Weather: no significant weather observed at this time

METAR text: LTAI 160250Z 34005KT CAVOK 22/13 Q1006 NOSIG RMK RWY18C 32005KT RWY36R 36004KT RWY18L 35003KT 270V070
Conditions at: LTAI (ANTALYA (CIV/MIL, TR) observed 0250 UTC 16 June 2019
Temperature: 22.0°C (72°F)
Dewpoint: 13.0°C (55°F) [RH = 57%]
Pressure (altimeter): 29.70 inches Hg (1006.0 mb)
Winds: from the NNW (340 degrees) at 6 MPH (5 knots; 2.6 m/s)
Visibility: 6 or more miles (10+ km)
Ceiling: ceiling and visibility are OK
Clouds: unknown
Weather: no significant weather observed at this time

METAR text: LTAI 160220Z 34006KT CAVOK 22/13 Q1006 NOSIG RMK RWY18C 33005KT RWY36R 33007KT RWY18L 35003KT
Conditions at: LTAI (ANTALYA (CIV/MIL, TR) observed 0220 UTC 16 June 2019
Temperature: 22.0°C (72°F)
Dewpoint: 13.0°C (55°F) [RH = 57%]
Pressure (altimeter): 29.70 inches Hg (1006.0 mb)
Winds: from the NNW (340 degrees) at 7 MPH (6 knots; 3.1 m/s)
Visibility: 6 or more miles (10+ km)
Ceiling: ceiling and visibility are OK
Clouds: unknown
Weather: no significant weather observed at this time

METAR text: LTAI 160150Z 33005KT CAVOK 22/13 Q1006 NOSIG RMK RWY18C 33005KT RWY36R 32008KT RWY18L 31007KT
Conditions at: LTAI (ANTALYA (CIV/MIL, TR) observed 0150 UTC 16 June 2019
Temperature: 22.0°C (72°F)
Dewpoint: 13.0°C (55°F) [RH = 57%]
Pressure (altimeter): 29.70 inches Hg (1006.0 mb)
Winds: from the NNW (330 degrees) at 6 MPH (5 knots; 2.6 m/s)
Visibility: 6 or more miles (10+ km)
Ceiling: ceiling and visibility are OK
Clouds: unknown
Weather: no significant weather observed at this time

METAR text: LTAI 160120Z 36008KT CAVOK 22/14 Q1006 NOSIG RMK RWY18C 35005KT RWY36R 36006KT RWY18L 35005KT
Conditions at: LTAI (ANTALYA (CIV/MIL, TR) observed 0120 UTC 16 June 2019
Temperature: 22.0°C (72°F)
Dewpoint: 14.0°C (57°F) [RH = 60%]
Pressure (altimeter): 29.70 inches Hg (1006.0 mb)
Winds: from the N (360 degrees) at 9 MPH (8 knots; 4.1 m/s)
Visibility: 6 or more miles (10+ km)
Ceiling: ceiling and visibility are OK
Clouds: unknown
Weather: no significant weather observed at this time

METAR text: LTAI 160050Z 36008KT CAVOK 22/14 Q1006 NOSIG RMK RWY18C 35004KT RWY36R 36006KT RWY18L 02004KT
Conditions at: LTAI (ANTALYA (CIV/MIL, TR) observed 0050 UTC 16 June 2019
Temperature: 22.0°C (72°F)
Dewpoint: 14.0°C (57°F) [RH = 60%]
Pressure (altimeter): 29.70 inches Hg (1006.0 mb)
Winds: from the N (360 degrees) at 9 MPH (8 knots; 4.1 m/s)
Visibility: 6 or more miles (10+ km)
Ceiling: ceiling and visibility are OK
Clouds: unknown
Weather: no significant weather observed at this time

METAR text: LTAI 160020Z 35007KT CAVOK 22/14 Q1006 NOSIG RMK RWY18C 35006KT RWY36R 36005KT RWY18L 34005KT
Conditions at: LTAI (ANTALYA (CIV/MIL, TR) observed 0020 UTC 16 June 2019
Temperature: 22.0°C (72°F)
Dewpoint: 14.0°C (57°F) [RH = 60%]
Pressure (altimeter): 29.70 inches Hg (1006.0 mb)
Winds: from the N (350 degrees) at 8 MPH (7 knots; 3.6 m/s)
Visibility: 6 or more miles (10+ km)
Ceiling: ceiling and visibility are OK
Clouds: unknown
Weather: no significant weather observed at this time

METAR text: LTAI 152350Z 33008KT CAVOK 23/14 Q1006 NOSIG RMK RWY18C 34005KT RWY36R 33008KT RWY18L 32007KT
Conditions at: LTAI (ANTALYA (CIV/MIL, TR) observed 2350 UTC 15 June 2019
Temperature: 23.0°C (73°F)
Dewpoint: 14.0°C (57°F) [RH = 57%]
Pressure (altimeter): 29.70 inches Hg (1006.0 mb)
Winds: from the NNW (330 degrees) at 9 MPH (8 knots; 4.1 m/s)
Visibility: 6 or more miles (10+ km)
Ceiling: ceiling and visibility are OK
Clouds: unknown
Weather: no significant weather observed at this time

METAR text: LTAI 152320Z 33009KT CAVOK 23/14 Q1006 NOSIG RMK RWY18C 32007KT 280V340 RWY36R 32009KT RWY18L 32007KT
Conditions at: LTAI (ANTALYA (CIV/MIL, TR) observed 2320 UTC 15 June 2019
Temperature: 23.0°C (73°F)
Dewpoint: 14.0°C (57°F) [RH = 57%]
Pressure (altimeter): 29.70 inches Hg (1006.0 mb)
Winds: from the NNW (330 degrees) at 10 MPH (9 knots; 4.6 m/s)
Visibility: 6 or more miles (10+ km)
Ceiling: ceiling and visibility are OK
Clouds: unknown
Weather: no significant weather observed at this time

METAR text: LTAI 152250Z 35008KT CAVOK 22/15 Q1006 NOSIG RMK RWY18C 34007KT RWY36R 35008KT RWY18L 35006KT
Conditions at: LTAI (ANTALYA (CIV/MIL, TR) observed 2250 UTC 15 June 2019
Temperature: 22.0°C (72°F)
Dewpoint: 15.0°C (59°F) [RH = 65%]
Pressure (altimeter): 29.70 inches Hg (1006.0 mb)
Winds: from the N (350 degrees) at 9 MPH (8 knots; 4.1 m/s)
Visibility: 6 or more miles (10+ km)
Ceiling: ceiling and visibility are OK
Clouds: unknown
Weather: no significant weather observed at this time

Forecast for: LTAI (ANTALYA (CIV/MIL, TR)
Text: TAF LTAI 170440Z 1706/1806 34006KT CAVOK
Forecast period: 0600 UTC 17 June 2019 to 0600 UTC 18 June 2019
Forecast type: FROM: standard forecast or significant change
Winds: from the NNW (340 degrees) at 7 MPH (6 knots; 3.1 m/s)
Visibility: 6 or more miles 10+ km)
Ceiling: unknown
Clouds: missing
Weather: NSW  (no significant weather)
Text: BECMG 1706/1709 18012KT SCT030
Forecast period: 0600 to 1500 UTC 17 June 2019
Forecast type: BECOMING: Conditions expected to become as follows by 0900 UTC 17 June 2019
Winds: from the S (180 degrees) at 14 MPH (12 knots; 6.2 m/s)
Visibility: 6 or more miles 10+ km)
Ceiling: at least 12,000 feet AGL
Clouds: scattered clouds at 3000 feet AGL
Weather: NSW  (no significant weather)
Text: TEMPO 1712/1716 -SHRA FEW020CB BKN030
Forecast period: 1200 to 1600 UTC 17 June 2019
Forecast type: TEMPORARY: The following changes expected for less than half the time period
Visibility: missing
Ceiling: 3000 feet AGL
Clouds: few clouds at 2000 feet AGL
broken clouds at 3000 feet AGL
Weather: -SHRA  (light rain showers)
Text: BECMG 1715/1719 34006KT
Forecast period: 1500 UTC 17 June 2019 to 0600 UTC 18 June 2019
Forecast type: BECOMING: Conditions expected to become as follows by 1900 UTC 17 June 2019
Winds: from the NNW (340 degrees) at 7 MPH (6 knots; 3.1 m/s)
Visibility: 6 or more miles 10+ km)
Ceiling: at least 12,000 feet AGL
Clouds: scattered clouds at 3000 feet AGL
Weather: NSW  (no significant weather)